createdAt,value
2022-12-24T00:01:37.068Z,61535.41
2022-12-24T00:04:06.039Z,61532.19
2022-12-24T00:06:34.572Z,61536.34
2022-12-24T00:09:03.156Z,61532.59
2022-12-24T00:11:33.137Z,61529.50
2022-12-24T00:14:01.832Z,61523.47
2022-12-24T00:16:30.189Z,61517.69
2022-12-24T00:18:58.624Z,61516.19
2022-12-24T00:21:27.100Z,61528.97
2022-12-24T00:23:55.457Z,61535.69
2022-12-24T00:26:23.928Z,61528.19
2022-12-24T00:28:53.778Z,61526.28
2022-12-24T00:31:22.452Z,61533.13
2022-12-24T00:33:50.930Z,61530.88
2022-12-24T00:36:25.775Z,61532.19
2022-12-24T00:38:54.203Z,61546.00
2022-12-24T00:41:26.173Z,61544.53
2022-12-24T00:43:59.224Z,61542.91
2022-12-24T00:46:30.081Z,61542.91
2022-12-24T00:48:58.680Z,61540.22
2022-12-24T00:51:27.760Z,61543.66
2022-12-24T00:53:56.287Z,61541.72
2022-12-24T00:56:24.966Z,61528.97
2022-12-24T00:58:55.442Z,61527.03
2022-12-24T01:01:24.411Z,61534.88
2022-12-24T01:04:12.947Z,61525.19
2022-12-24T01:06:40.440Z,61525.63
2022-12-24T01:09:08.923Z,61524.13
2022-12-24T01:11:37.374Z,61526.28
2022-12-24T01:14:07.213Z,61529.50
2022-12-24T01:16:35.658Z,61534.19
2022-12-24T01:19:04.320Z,61538.50
2022-12-24T01:21:32.682Z,61536.34
2022-12-24T01:24:01.028Z,61530.97
2022-12-24T01:26:29.399Z,61525.63
2022-12-24T01:28:57.816Z,61526.28
2022-12-24T01:31:27.565Z,61539.69
2022-12-24T01:33:55.920Z,61537.00
2022-12-24T01:36:24.328Z,61539.69
2022-12-24T01:38:52.699Z,61539.69
2022-12-24T01:41:41.467Z,61538.63
2022-12-24T01:44:33.511Z,61533.78
2022-12-24T01:47:12.873Z,61535.28
2022-12-24T01:49:46.669Z,61530.03
2022-12-24T01:52:19.150Z,61526.28
2022-12-24T01:54:52.358Z,61525.63
2022-12-24T01:57:27.590Z,61524.13
2022-12-24T02:00:01.333Z,61519.84
2022-12-24T02:02:33.379Z,61524.53
2022-12-24T02:05:09.150Z,61524.13
2022-12-24T02:07:38.142Z,61521.97
2022-12-24T02:10:10.809Z,61528.84
2022-12-24T02:12:40.531Z,61520.91
2022-12-24T02:15:13.540Z,61525.63
2022-12-24T02:17:53.273Z,61519.16
2022-12-24T02:20:53.446Z,61516.91
2022-12-24T02:23:46.298Z,61513.38
2022-12-24T02:26:36.067Z,61510.03
2022-12-24T02:29:28.517Z,61503.19
2022-12-24T02:32:03.872Z,61502.00
2022-12-24T02:34:38.362Z,61501.56
2022-12-24T02:37:13.737Z,61499.97
2022-12-24T02:39:46.648Z,61499.44
2022-12-24T02:42:21.846Z,61500.50
2022-12-24T02:44:55.727Z,61505.22
2022-12-24T02:47:31.003Z,61503.19
2022-12-24T02:50:04.086Z,61510.03
2022-12-24T02:52:35.968Z,61508.03
2022-12-24T02:55:10.832Z,61514.66
2022-12-24T02:58:00.221Z,61512.72
2022-12-24T03:00:31.881Z,61501.56
2022-12-24T03:03:31.742Z,61510.16
2022-12-24T03:06:09.619Z,61503.72
2022-12-24T03:08:46.325Z,61505.88
2022-12-24T03:11:15.965Z,61514.34
2022-12-24T03:13:45.775Z,61511.25
2022-12-24T03:16:19.069Z,61512.31
2022-12-24T03:18:51.002Z,61506.53
2022-12-24T03:21:26.703Z,61508.03
2022-12-24T03:23:55.164Z,61504.78
2022-12-24T03:26:24.783Z,61512.72
2022-12-24T03:28:53.369Z,61512.31
2022-12-24T03:31:22.292Z,61514.22
2022-12-24T03:33:53.048Z,61524.31
2022-12-24T03:36:21.418Z,61512.31
2022-12-24T03:38:49.801Z,61512.31
2022-12-24T03:41:18.296Z,61508.13
2022-12-24T03:43:46.691Z,61519.16
2022-12-24T03:46:15.078Z,61522.81
2022-12-24T03:48:43.641Z,61515.41
2022-12-24T03:51:19.874Z,61515.53
2022-12-24T03:53:49.099Z,61519.28
2022-12-24T03:56:20.512Z,61523.47
2022-12-24T03:58:49.607Z,61522.94
2022-12-24T04:01:19.264Z,61525.19
2022-12-24T04:03:47.786Z,61521.19
2022-12-24T04:06:19.040Z,61525.06
2022-12-24T04:08:47.391Z,61524.53
2022-12-24T04:11:19.414Z,61524.13
2022-12-24T04:13:47.739Z,61525.19
2022-12-24T04:16:18.279Z,61527.22
2022-12-24T04:18:47.011Z,61526.81
2022-12-24T04:21:15.470Z,61518.75
2022-12-24T04:23:45.338Z,61524.53
2022-12-24T04:26:15.304Z,61527.75
2022-12-24T04:28:44.413Z,61527.34
2022-12-24T04:31:16.460Z,61525.72
2022-12-24T04:33:45.683Z,61524.66
2022-12-24T04:36:17.948Z,61529.91
2022-12-24T04:38:49.322Z,61527.34
2022-12-24T04:41:23.724Z,61519.84
2022-12-24T04:43:53.331Z,61524.97
2022-12-24T04:46:24.244Z,61526.69
2022-12-24T04:48:54.981Z,61521.31
2022-12-24T04:51:24.112Z,61524.53
2022-12-24T04:53:54.052Z,61518.75
2022-12-24T04:56:24.942Z,61515.53
2022-12-24T04:58:54.165Z,61519.84
2022-12-24T05:01:25.256Z,61512.84
2022-12-24T05:03:55.316Z,61521.44
2022-12-24T05:06:26.213Z,61521.97
2022-12-24T05:08:58.408Z,61519.84
2022-12-24T05:11:27.442Z,61520.91
2022-12-24T05:13:56.022Z,61515.00
2022-12-24T05:16:26.088Z,61514.75
2022-12-24T05:18:55.057Z,61516.59
2022-12-24T05:21:25.856Z,61518.53
2022-12-24T05:24:13.393Z,61512.72
2022-12-24T05:26:44.810Z,61509.63
2022-12-24T05:29:14.229Z,61495.13
2022-12-24T05:31:45.056Z,61498.75
2022-12-24T05:34:14.646Z,61505.38
2022-12-24T05:36:43.924Z,61496.19
2022-12-24T05:39:16.911Z,61481.81
2022-12-24T05:41:46.134Z,61490.81
2022-12-24T05:44:14.901Z,61488.16
2022-12-24T05:46:43.767Z,61497.69
2022-12-24T05:49:12.171Z,61485.22
2022-12-24T05:51:41.257Z,61478.16
2022-12-24T05:54:09.633Z,61492.19
2022-12-24T05:56:39.358Z,61494.47
2022-12-24T05:59:07.813Z,61491.66
2022-12-24T06:01:36.367Z,61486.00
2022-12-24T06:04:04.978Z,61489.75
2022-12-24T06:06:33.371Z,61484.81
2022-12-24T06:09:01.694Z,61483.84
2022-12-24T06:11:30.527Z,61498.09
2022-12-24T06:14:00.255Z,61487.50
2022-12-24T06:16:28.744Z,61496.63
2022-12-24T06:18:57.277Z,61495.53
2022-12-24T06:21:25.699Z,61498.22
2022-12-24T06:23:54.089Z,61505.38
2022-12-24T06:26:24.224Z,61500.50
2022-12-24T06:28:53.205Z,61490.81
2022-12-24T06:31:24.816Z,61497.53
2022-12-24T06:33:53.941Z,61497.25
2022-12-24T06:36:26.168Z,61503.19
2022-12-24T06:38:56.032Z,61504.25
2022-12-24T06:41:25.347Z,61510.16
2022-12-24T06:43:54.580Z,61510.16
2022-12-24T06:46:24.470Z,61502.88
2022-12-24T06:48:53.010Z,61510.16
2022-12-24T06:51:21.610Z,61511.25
2022-12-24T06:53:51.594Z,61511.66
2022-12-24T06:56:21.721Z,61509.63
2022-12-24T06:58:50.363Z,61517.16
2022-12-24T07:01:20.806Z,61516.38
2022-12-24T07:03:51.295Z,61510.16
2022-12-24T07:06:23.648Z,61511.00
2022-12-24T07:08:51.960Z,61495.66
2022-12-24T07:11:20.441Z,61500.50
2022-12-24T07:13:49.267Z,61493.22
2022-12-24T07:16:18.357Z,61495.66
2022-12-24T07:18:47.137Z,61502.66
2022-12-24T07:21:17.049Z,61501.81
2022-12-24T07:23:45.371Z,61505.88
2022-12-24T07:26:13.747Z,61501.56
2022-12-24T07:28:42.063Z,61505.34
2022-12-24T07:31:10.493Z,61503.19
2022-12-24T07:33:38.840Z,61512.72
2022-12-24T07:36:10.124Z,61505.47
2022-12-24T07:38:39.929Z,61512.31
2022-12-24T07:41:08.299Z,61518.09
2022-12-24T07:43:36.664Z,61515.53
2022-12-24T07:46:05.567Z,61523.34
2022-12-24T07:48:34.443Z,61513.25
2022-12-24T07:51:02.943Z,61513.94
2022-12-24T07:53:33.016Z,61518.22
2022-12-24T07:56:07.529Z,61524.66
2022-12-24T07:58:38.930Z,61536.78
2022-12-24T08:01:07.571Z,61541.06
2022-12-24T08:03:36.141Z,61539.56
2022-12-24T08:06:04.919Z,61539.56
2022-12-24T08:08:33.234Z,61547.22
2022-12-24T08:11:05.100Z,61542.25
2022-12-24T08:13:34.447Z,61541.72
2022-12-24T08:16:02.906Z,61533.78
2022-12-24T08:18:31.766Z,61546.69
2022-12-24T08:21:00.379Z,61552.59
2022-12-24T08:23:28.704Z,61553.13
2022-12-24T08:25:57.168Z,61549.34
2022-12-24T08:28:26.988Z,61547.22
2022-12-24T08:30:55.795Z,61552.59
2022-12-24T08:33:24.093Z,61544.53
2022-12-24T08:35:54.931Z,61552.03
2022-12-24T08:38:23.647Z,61544.66
2022-12-24T08:40:55.109Z,61557.41
2022-12-24T08:43:25.509Z,61562.56
2022-12-24T08:45:55.425Z,61561.72
2022-12-24T08:48:23.902Z,61558.91
2022-12-24T08:50:52.268Z,61559.97
2022-12-24T08:53:20.651Z,61552.03
2022-12-24T08:55:55.633Z,61541.72
2022-12-24T08:58:24.700Z,61547.09
2022-12-24T09:00:54.431Z,61552.59
2022-12-24T09:03:27.441Z,61550.31
2022-12-24T09:05:56.440Z,61537.00
2022-12-24T09:08:24.847Z,61544.41
2022-12-24T09:10:53.273Z,61538.91
2022-12-24T09:13:21.651Z,61542.78
2022-12-24T09:15:56.375Z,61543.34
2022-12-24T09:18:26.195Z,61532.19
2022-12-24T09:21:01.034Z,61528.97
2022-12-24T09:23:30.229Z,61538.50
2022-12-24T09:25:58.914Z,61532.72
2022-12-24T09:28:27.267Z,61530.03
2022-12-24T09:31:02.371Z,61537.00
2022-12-24T09:33:33.759Z,61531.88
2022-12-24T09:36:02.726Z,61543.88
2022-12-24T09:38:31.298Z,61554.50
2022-12-24T09:41:05.400Z,61547.75
2022-12-24T09:43:38.808Z,61544.53
2022-12-24T09:46:17.835Z,61534.00
2022-12-24T09:48:50.774Z,61534.88
2022-12-24T09:51:28.501Z,61542.38
2022-12-24T09:54:01.820Z,61555.25
2022-12-24T09:56:36.292Z,61550.97
2022-12-24T09:59:07.504Z,61549.91
2022-12-24T10:01:37.382Z,61552.03
2022-12-24T10:04:11.281Z,61561.06
2022-12-24T10:06:48.839Z,61577.19
2022-12-24T10:09:26.922Z,61582.09
2022-12-24T10:12:05.166Z,61584.69
2022-12-24T10:14:50.685Z,61570.09
2022-12-24T10:17:42.641Z,61576.09
2022-12-24T10:20:34.209Z,61573.09
2022-12-24T10:23:13.051Z,61576.09
2022-12-24T10:25:51.067Z,61579.97
2022-12-24T10:28:35.614Z,61582.09
2022-12-24T10:31:08.389Z,61582.66
2022-12-24T10:33:43.282Z,61594.78
2022-12-24T10:36:19.068Z,61591.16
2022-12-24T10:38:47.959Z,61614.78
2022-12-24T10:41:17.526Z,61623.38
2022-12-24T10:43:47.898Z,61627.25
2022-12-24T10:46:23.138Z,61623.38
2022-12-24T10:48:59.893Z,61612.97
2022-12-24T10:51:41.986Z,61613.28
2022-12-24T10:54:14.681Z,61620.16
2022-12-24T10:56:46.559Z,61621.88
2022-12-24T10:59:28.103Z,61603.63
2022-12-24T11:01:59.160Z,61606.31
2022-12-24T11:04:31.759Z,61616.38
2022-12-24T11:07:02.584Z,61647.56
2022-12-24T11:09:33.566Z,61622.94
2022-12-24T11:12:09.353Z,61622.94
2022-12-24T11:14:40.243Z,61644.34
2022-12-24T11:17:11.277Z,61631.56
2022-12-24T11:19:41.122Z,61659.28
2022-12-24T11:22:19.694Z,61635.31
2022-12-24T11:24:59.770Z,61637.34
2022-12-24T11:27:40.390Z,61619.72
2022-12-24T11:30:29.481Z,61628.75
2022-12-24T11:33:21.738Z,61633.16
2022-12-24T11:36:03.489Z,61640.16
2022-12-24T11:38:35.256Z,61651.75
2022-12-24T11:41:08.391Z,61644.44
2022-12-24T11:43:47.667Z,61656.25
2022-12-24T11:46:24.163Z,61676.50
2022-12-24T11:49:15.293Z,61679.72
2022-12-24T11:52:19.509Z,61675.75
2022-12-24T11:55:07.687Z,61686.84
2022-12-24T11:57:49.804Z,61680.81
2022-12-24T12:00:19.195Z,61688.31
2022-12-24T12:02:51.273Z,61682.09
2022-12-24T12:05:23.463Z,61682.63
2022-12-24T12:07:58.096Z,61677.16
2022-12-24T12:10:31.354Z,61671.25
2022-12-24T12:13:09.777Z,61668.94
2022-12-24T12:15:45.941Z,61661.66
2022-12-24T12:18:18.250Z,61663.25
2022-12-24T12:20:50.905Z,61675.66
2022-12-24T12:23:27.641Z,61686.19
2022-12-24T12:26:00.371Z,61691.00
2022-12-24T12:28:37.676Z,61706.81
2022-12-24T12:31:16.909Z,61735.34
2022-12-24T12:33:50.051Z,61756.09
2022-12-24T12:36:23.078Z,61751.78
2022-12-24T12:38:53.263Z,61754.69
2022-12-24T12:41:46.647Z,61736.75
2022-12-24T12:44:48.191Z,61718.44
2022-12-24T12:47:45.074Z,61707.25
2022-12-24T12:50:20.001Z,61695.00
2022-12-24T12:53:14.993Z,61725.13
2022-12-24T12:55:54.416Z,61723.28
2022-12-24T12:58:28.921Z,61719.09
2022-12-24T13:01:04.569Z,61722.31
2022-12-24T13:04:25.303Z,61747.59
2022-12-24T13:07:18.770Z,61763.19
2022-12-24T13:10:14.728Z,61739.09
2022-12-24T13:13:20.068Z,61726.19
2022-12-24T13:16:04.845Z,61718.00
2022-12-24T13:19:05.707Z,61715.44
2022-12-24T13:21:35.313Z,61700.78
2022-12-24T13:24:16.631Z,61668.13
2022-12-24T13:27:01.347Z,61671.78
2022-12-24T13:29:53.353Z,61665.44
2022-12-24T13:32:51.258Z,61665.31
2022-12-24T13:36:00.621Z,61675.66
2022-12-24T13:38:42.689Z,61698.00
2022-12-24T13:41:46.874Z,61698.00
2022-12-24T13:44:33.725Z,61693.16
2022-12-24T13:47:30.192Z,61686.19
2022-12-24T13:50:23.191Z,61676.59
2022-12-24T13:52:54.547Z,61686.19
2022-12-24T13:55:23.535Z,61685.75
2022-12-24T13:57:58.695Z,61684.66
2022-12-24T14:00:34.859Z,61669.72
2022-12-24T14:03:17.410Z,61664.88
2022-12-24T14:05:50.080Z,61658.41
2022-12-24T14:08:31.909Z,61663.56
2022-12-24T14:11:08.912Z,61653.25
2022-12-24T14:14:11.121Z,61658.41
2022-12-24T14:16:50.256Z,61658.63
2022-12-24T14:19:23.058Z,61648.75
2022-12-24T14:22:03.984Z,61649.16
2022-12-24T14:24:36.642Z,61643.78
2022-12-24T14:27:16.050Z,61638.53
2022-12-24T14:29:52.405Z,61641.00
2022-12-24T14:32:21.210Z,61641.44
2022-12-24T14:35:08.355Z,61626.16
2022-12-24T14:37:37.236Z,61624.03
2022-12-24T14:40:08.531Z,61619.72
2022-12-24T14:42:47.833Z,61626.72
2022-12-24T14:45:29.533Z,61622.72
2022-12-24T14:48:08.006Z,61621.22
2022-12-24T14:50:58.683Z,61620.78
2022-12-24T14:53:51.033Z,61613.81
2022-12-24T14:56:22.527Z,61618.66
2022-12-24T14:58:51.538Z,61625.94
2022-12-24T15:01:24.319Z,61620.16
2022-12-24T15:04:04.940Z,61616.91
2022-12-24T15:06:37.526Z,61618.97
2022-12-24T15:09:07.584Z,61615.84
2022-12-24T15:11:37.182Z,61616.81
2022-12-24T15:14:06.898Z,61610.38
2022-12-24T15:16:37.613Z,61599.84
2022-12-24T15:19:09.399Z,61585.34
2022-12-24T15:21:41.706Z,61587.94
2022-12-24T15:24:26.673Z,61588.34
2022-12-24T15:26:55.727Z,61576.63
2022-12-24T15:29:27.470Z,61574.91
2022-12-24T15:31:58.020Z,61564.38
2022-12-24T15:34:37.143Z,61555.25
2022-12-24T15:37:15.747Z,61555.69
2022-12-24T15:39:45.045Z,61557.81
2022-12-24T15:42:20.060Z,61563.31
2022-12-24T15:45:00.658Z,61558.50
2022-12-24T15:47:37.801Z,61557.41
2022-12-24T15:50:16.238Z,61553.13
2022-12-24T15:52:47.352Z,61562.13
2022-12-24T15:55:32.359Z,61563.63
2022-12-24T15:58:02.360Z,61559.56
2022-12-24T16:00:32.484Z,61563.19
2022-12-24T16:03:13.524Z,61560.41
2022-12-24T16:05:42.089Z,61556.88
2022-12-24T16:08:31.584Z,61545.59
2022-12-24T16:11:19.300Z,61546.44
2022-12-24T16:14:04.316Z,61541.31
2022-12-24T16:16:39.271Z,61540.22
2022-12-24T16:19:09.289Z,61534.88
2022-12-24T16:21:41.388Z,61535.94
2022-12-24T16:24:19.186Z,61528.41
2022-12-24T16:26:48.440Z,61530.97
2022-12-24T16:29:19.369Z,61525.63
2022-12-24T16:31:52.090Z,61522.94
2022-12-24T16:34:24.618Z,61518.75
2022-12-24T16:36:53.145Z,61525.63
2022-12-24T16:39:25.837Z,61517.16
2022-12-24T16:42:13.336Z,61518.63
2022-12-24T16:44:42.353Z,61518.75
2022-12-24T16:47:22.084Z,61513.38
2022-12-24T16:49:51.644Z,61505.88
2022-12-24T16:52:22.593Z,61510.03
2022-12-24T16:54:52.409Z,61501.44
2022-12-24T16:57:21.172Z,61500.25
2022-12-24T16:59:49.721Z,61502.53
2022-12-24T17:02:20.264Z,61505.22
2022-12-24T17:04:49.365Z,61503.19
2022-12-24T17:07:19.837Z,61500.50
2022-12-24T17:09:48.222Z,61505.63
2022-12-24T17:12:18.027Z,61505.09
2022-12-24T17:14:46.431Z,61495.66
2022-12-24T17:17:24.598Z,61501.03
2022-12-24T17:19:53.186Z,61498.88
2022-12-24T17:22:21.603Z,61502.66
2022-12-24T17:24:50.036Z,61504.78
2022-12-24T17:27:19.707Z,61501.56
2022-12-24T17:29:48.120Z,61496.09
2022-12-24T17:32:16.614Z,61497.25
2022-12-24T17:34:45.093Z,61499.19
2022-12-24T17:37:13.481Z,61496.38
2022-12-24T17:39:41.873Z,61487.59
2022-12-24T17:42:10.250Z,61498.75
2022-12-24T17:44:40.141Z,61494.69
2022-12-24T17:47:08.691Z,61490.19
2022-12-24T17:49:37.275Z,61499.19
2022-12-24T17:52:06.093Z,61495.13
2022-12-24T17:54:34.497Z,61479.56
2022-12-24T17:57:02.934Z,61492.75
2022-12-24T17:59:31.327Z,61487.06
2022-12-24T18:02:01.179Z,61488.03
2022-12-24T18:04:29.705Z,61490.72
2022-12-24T18:07:02.537Z,61490.59
2022-12-24T18:09:31.940Z,61483.31
2022-12-24T18:12:00.997Z,61478.91
2022-12-24T18:14:29.705Z,61477.28
2022-12-24T18:16:58.085Z,61482.00
2022-12-24T18:19:28.038Z,61475.16
2022-12-24T18:21:56.605Z,61469.78
2022-12-24T18:24:25.750Z,61478.38
2022-12-24T18:26:55.221Z,61475.28
2022-12-24T18:29:23.681Z,61472.03
2022-12-24T18:31:52.640Z,61467.75
2022-12-24T18:34:21.209Z,61470.44
2022-12-24T18:36:55.045Z,61467.63
2022-12-24T18:39:24.130Z,61464.81
2022-12-24T18:41:52.615Z,61459.03
2022-12-24T18:44:25.305Z,61460.53
2022-12-24T18:46:54.308Z,61458.91
2022-12-24T18:49:22.852Z,61456.78
2022-12-24T18:51:52.608Z,61451.09
2022-12-24T18:54:21.029Z,61461.84
2022-12-24T18:56:52.263Z,61465.47
2022-12-24T18:59:20.688Z,61462.91
2022-12-24T19:01:49.263Z,61468.69
2022-12-24T19:04:17.912Z,61457.00
2022-12-24T19:06:52.774Z,61456.47
2022-12-24T19:09:23.974Z,61466.56
2022-12-24T19:11:52.320Z,61470.84
2022-12-24T19:14:21.115Z,61486.41
2022-12-24T19:16:49.556Z,61486.97
2022-12-24T19:19:18.846Z,61481.16
2022-12-24T19:21:47.219Z,61486.97
2022-12-24T19:24:15.638Z,61485.88
2022-12-24T19:26:45.333Z,61482.25
2022-12-24T19:29:13.787Z,61482.25
2022-12-24T19:31:44.356Z,61485.34
2022-12-24T19:34:12.779Z,61482.13
2022-12-24T19:36:41.249Z,61487.50
2022-12-24T19:39:09.647Z,61484.38
2022-12-24T19:41:38.134Z,61481.47
2022-12-24T19:44:07.944Z,61475.81
2022-12-24T19:46:38.103Z,61481.06
2022-12-24T19:49:09.226Z,61484.81
2022-12-24T19:51:37.806Z,61480.50
2022-12-24T19:54:13.423Z,61480.09
2022-12-24T19:56:48.409Z,61476.88
2022-12-24T19:59:18.080Z,61481.47
2022-12-24T20:01:47.216Z,61474.59
2022-12-24T20:04:18.332Z,61475.16
2022-12-24T20:06:47.877Z,61466.56
2022-12-24T20:09:16.206Z,61462.78
2022-12-24T20:11:44.635Z,61457.84
2022-12-24T20:14:13.620Z,61448.97
2022-12-24T20:16:43.510Z,61442.00
2022-12-24T20:19:15.443Z,61435.03
2022-12-24T20:21:43.853Z,61434.38
2022-12-24T20:24:12.294Z,61429.97
2022-12-24T20:26:41.065Z,61428.34
2022-12-24T20:29:12.713Z,61422.16
2022-12-24T20:31:42.706Z,61423.47
2022-12-24T20:34:12.370Z,61427.94
2022-12-24T20:36:40.833Z,61417.84
2022-12-24T20:39:09.251Z,61416.13
2022-12-24T20:41:38.073Z,61415.16
2022-12-24T20:44:06.806Z,61419.47
2022-12-24T20:46:35.655Z,61416.78
2022-12-24T20:49:05.646Z,61418.69
2022-12-24T20:51:34.116Z,61415.03
2022-12-24T20:54:02.850Z,61414.63
2022-12-24T20:56:31.956Z,61426.31
2022-12-24T20:59:01.799Z,61424.84
2022-12-24T21:01:31.250Z,61425.25
2022-12-24T21:04:04.582Z,61435.44
2022-12-24T21:06:35.738Z,61432.88
2022-12-24T21:09:05.823Z,61440.81
2022-12-24T21:11:52.115Z,61438.78
2022-12-24T21:14:24.828Z,61436.63
2022-12-24T21:16:55.509Z,61432.88
2022-12-24T21:19:26.189Z,61436.63
2022-12-24T21:21:56.153Z,61436.63
2022-12-24T21:24:24.525Z,61444.03
2022-12-24T21:26:52.893Z,61442.53
2022-12-24T21:29:21.382Z,61441.88
2022-12-24T21:31:49.820Z,61437.16
2022-12-24T21:34:18.221Z,61435.44
2022-12-24T21:36:46.663Z,61439.09
2022-12-24T21:39:16.490Z,61436.63
2022-12-24T21:41:44.959Z,61439.75
2022-12-24T21:44:13.372Z,61444.03
2022-12-24T21:46:41.798Z,61444.66
2022-12-24T21:49:29.971Z,61442.00
2022-12-24T21:51:59.789Z,61447.88
2022-12-24T21:54:30.743Z,61447.88
2022-12-24T21:57:15.610Z,61442.53
2022-12-24T21:59:45.010Z,61440.16
2022-12-24T22:02:15.452Z,61433.94
2022-12-24T22:04:44.754Z,61427.50
2022-12-24T22:07:40.045Z,61425.78
2022-12-24T22:10:29.323Z,61421.59
2022-12-24T22:13:00.464Z,61421.59
2022-12-24T22:15:28.885Z,61423.09
2022-12-24T22:17:57.299Z,61415.16
2022-12-24T22:20:25.972Z,61422.44
2022-12-24T22:22:54.596Z,61418.25
2022-12-24T22:25:24.405Z,61418.25
2022-12-24T22:27:52.834Z,61414.50
2022-12-24T22:30:21.440Z,61412.47
2022-12-24T22:32:49.879Z,61411.41
2022-12-24T22:35:18.481Z,61409.28
2022-12-24T22:37:47.221Z,61410.75
2022-12-24T22:40:16.162Z,61417.09
2022-12-24T22:42:45.890Z,61414.50
2022-12-24T22:45:20.044Z,61420.84
2022-12-24T22:47:50.575Z,61413.97
2022-12-24T22:50:19.376Z,61415.16
2022-12-24T22:52:47.718Z,61418.25
2022-12-24T22:55:16.269Z,61414.63
2022-12-24T22:57:45.969Z,61416.78
2022-12-24T23:00:37.225Z,61419.59
2022-12-24T23:03:06.625Z,61423.75
2022-12-24T23:05:35.271Z,61424.84
2022-12-24T23:08:03.841Z,61426.97
2022-12-24T23:10:32.508Z,61423.88
2022-12-24T23:13:19.768Z,61435.88
2022-12-24T23:15:48.272Z,61429.66
2022-12-24T23:18:16.646Z,61431.16
2022-12-24T23:20:46.596Z,61431.16
2022-12-24T23:23:16.161Z,61432.75
2022-12-24T23:25:44.567Z,61442.31
2022-12-24T23:28:14.298Z,61446.59
2022-12-24T23:30:42.780Z,61440.38
2022-12-24T23:33:11.191Z,61442.53
2022-12-24T23:35:39.571Z,61445.63
2022-12-24T23:38:08.141Z,61440.91
2022-12-24T23:40:36.496Z,61443.19
2022-12-24T23:43:04.854Z,61449.38
2022-12-24T23:45:34.697Z,61452.06
2022-12-24T23:48:03.057Z,61453.66
2022-12-24T23:50:31.603Z,61449.38
2022-12-24T23:52:59.964Z,61451.41
2022-12-24T23:55:28.690Z,61441.44
2022-12-24T23:57:57.108Z,61443.59
